6分钟前
罗盘
风向 的 风向 240° De Peel Air Base 06/24
风: 5 千吨, 2 beaufort
0 0 0.17778093859221 500 0.32299085377319 1.500 0.47075341907445 3.000 0.62138884920159 5.000 0.8022287624727 8.000 0.90566318494517 10.000
SCT 5.500 ft
METAR EHVK 222255Z AUTO 24005KT 7000 BR SCT055 05/05 Q1023 WHT

METAR定义 | 嵌入

24小时趋势

航班类别VFRLIFR
温度12 °C5 °C
风速18 千吨0 千吨
能见度10 公里+0 米

更多历史数据

下载我们的安卓应用程序

从你的主屏幕上轻松地访问你的航空天气。
只需一次付费,您就可以获得无广告的体验。

您会帮助我们保持Metar-Taf.com正常运行吗?
您的贡献有助于网站的进一步开发并支付费用。

没有更多广告

您是捐款5美元还是更多?然后,我们将永远不会再向您展示广告,这是我们永恒的感谢!
捐赠前先登录

METAR De Peel Air Base

De Peel Air Base是Venray,荷兰中的小机场。 机场有{a,plural,=1{一条跑道} other{#跑道}}: 06/24

De Peel Air Base最近未发布观察结果。相反,我们向您显示19 km的报告Volkel Air Base。 该报告是针对2021年10月23日 00:55, 当地时间进行的。

机场观察

风来自西南西 (240°)方向,速度为5 千吨。

可见度为7 公里。

有疏云,零星散落的云朵在5.500 ft的高度。 没有观察到天花板。

当前天气为薄雾。 温度为5 °C,阵风为1 °C。 露点为5 °C,相对湿度为100%。 海平面上的气压为1023 压力 (QNH)。

白天

今天,太阳从08:14升起,在18:26降落。 这适用于De Peel Air Base,世界夏令时可能有所不同。 当地时间与世界标准时间之间的时差为+2 小时。 夏令时目前正在进行中。

公司介绍

我们没有关于这个机场的公司信息。

体会

到Vliegles.nl去找飞行课程,跳伞和其他飞行体验。 浏览页面,了解De Peel Air Base附近所有可用的活动。 你也可以使用搜索功能来寻找你所在地附近的特定飞行课程、跳伞或其他飞行体验。

您是否要在网站上De Peel Air Base飞行的天气? 阅读更多   自由!